sensor_id;sensor_type;location;lat;lon;timestamp;temperature;humidity
13598;DHT22;38563;54.258;12.574;2023-04-15T00:01:25;6.80;99.90
13598;DHT22;38563;54.258;12.574;2023-04-15T00:03:53;6.80;99.90
13598;DHT22;38563;54.258;12.574;2023-04-15T00:06:20;6.80;99.90
13598;DHT22;38563;54.258;12.574;2023-04-15T00:08:47;6.80;99.90
13598;DHT22;38563;54.258;12.574;2023-04-15T00:11:15;6.80;99.90
13598;DHT22;38563;54.258;12.574;2023-04-15T00:13:41;6.80;99.90
13598;DHT22;38563;54.258;12.574;2023-04-15T00:16:09;6.80;99.90
13598;DHT22;38563;54.258;12.574;2023-04-15T00:18:37;6.90;99.90
13598;DHT22;38563;54.258;12.574;2023-04-15T00:21:04;6.80;99.90
13598;DHT22;38563;54.258;12.574;2023-04-15T00:23:31;6.90;99.90
13598;DHT22;38563;54.258;12.574;2023-04-15T00:25:58;6.90;99.90
13598;DHT22;38563;54.258;12.574;2023-04-15T00:28:25;6.90;99.90
13598;DHT22;38563;54.258;12.574;2023-04-15T00:30:52;6.90;99.90
13598;DHT22;38563;54.258;12.574;2023-04-15T00:33:19;6.90;99.90
13598;DHT22;38563;54.258;12.574;2023-04-15T00:35:47;7.00;99.90
13598;DHT22;38563;54.258;12.574;2023-04-15T00:38:13;7.00;99.90
13598;DHT22;38563;54.258;12.574;2023-04-15T00:40:41;7.00;99.90
13598;DHT22;38563;54.258;12.574;2023-04-15T00:43:08;7.00;99.90
13598;DHT22;38563;54.258;12.574;2023-04-15T00:45:34;7.00;99.90
13598;DHT22;38563;54.258;12.574;2023-04-15T00:48:02;7.00;99.90
13598;DHT22;38563;54.258;12.574;2023-04-15T00:50:28;7.00;99.90
13598;DHT22;38563;54.258;12.574;2023-04-15T00:52:56;7.00;99.90
13598;DHT22;38563;54.258;12.574;2023-04-15T00:55:23;7.00;99.90
13598;DHT22;38563;54.258;12.574;2023-04-15T00:57:50;7.10;99.90
13598;DHT22;38563;54.258;12.574;2023-04-15T01:00:18;7.10;99.90
13598;DHT22;38563;54.258;12.574;2023-04-15T01:02:45;7.10;99.90
13598;DHT22;38563;54.258;12.574;2023-04-15T01:05:12;7.10;99.90
13598;DHT22;38563;54.258;12.574;2023-04-15T01:07:41;7.10;99.90
13598;DHT22;38563;54.258;12.574;2023-04-15T01:10:10;7.10;99.90
13598;DHT22;38563;54.258;12.574;2023-04-15T01:12:37;7.10;99.90
13598;DHT22;38563;54.258;12.574;2023-04-15T01:15:05;7.20;99.90
13598;DHT22;38563;54.258;12.574;2023-04-15T01:17:33;7.20;99.90
13598;DHT22;38563;54.258;12.574;2023-04-15T01:20:00;7.20;99.90
13598;DHT22;38563;54.258;12.574;2023-04-15T01:22:29;7.20;99.90
13598;DHT22;38563;54.258;12.574;2023-04-15T01:25:00;7.20;99.90
13598;DHT22;38563;54.258;12.574;2023-04-15T01:27:31;7.20;99.90
13598;DHT22;38563;54.258;12.574;2023-04-15T01:29:58;7.20;99.90
13598;DHT22;38563;54.258;12.574;2023-04-15T01:32:25;7.20;99.90
13598;DHT22;38563;54.258;12.574;2023-04-15T01:34:52;7.20;99.90
13598;DHT22;38563;54.258;12.574;2023-04-15T01:37:23;7.20;99.90
13598;DHT22;38563;54.258;12.574;2023-04-15T01:39:50;7.10;99.90
13598;DHT22;38563;54.258;12.574;2023-04-15T01:42:17;7.10;99.90
13598;DHT22;38563;54.258;12.574;2023-04-15T01:44:45;7.10;99.90
13598;DHT22;38563;54.258;12.574;2023-04-15T01:47:12;7.00;99.90
13598;DHT22;38563;54.258;12.574;2023-04-15T01:49:40;7.00;99.90
13598;DHT22;38563;54.258;12.574;2023-04-15T01:52:07;7.00;99.90
13598;DHT22;38563;54.258;12.574;2023-04-15T01:54:33;6.90;99.90
13598;DHT22;38563;54.258;12.574;2023-04-15T01:57:00;7.00;99.90
13598;DHT22;38563;54.258;12.574;2023-04-15T01:59:29;7.00;99.90
13598;DHT22;38563;54.258;12.574;2023-04-15T02:01:58;7.00;99.90
13598;DHT22;38563;54.258;12.574;2023-04-15T02:04:26;7.00;99.90
13598;DHT22;38563;54.258;12.574;2023-04-15T02:06:53;7.00;99.90
13598;DHT22;38563;54.258;12.574;2023-04-15T02:09:20;7.00;99.90
13598;DHT22;38563;54.258;12.574;2023-04-15T02:11:47;7.10;99.90
13598;DHT22;38563;54.258;12.574;2023-04-15T02:14:14;7.10;99.90
13598;DHT22;38563;54.258;12.574;2023-04-15T02:16:40;7.10;99.90
13598;DHT22;38563;54.258;12.574;2023-04-15T02:19:08;7.10;99.90
13598;DHT22;38563;54.258;12.574;2023-04-15T02:21:36;7.10;99.90
13598;DHT22;38563;54.258;12.574;2023-04-15T02:24:04;7.10;99.90
13598;DHT22;38563;54.258;12.574;2023-04-15T02:26:32;7.10;99.90
13598;DHT22;38563;54.258;12.574;2023-04-15T02:28:59;7.00;99.90
13598;DHT22;38563;54.258;12.574;2023-04-15T02:31:25;7.00;99.90
13598;DHT22;38563;54.258;12.574;2023-04-15T02:33:52;7.00;99.90
13598;DHT22;38563;54.258;12.574;2023-04-15T02:36:20;7.00;99.90
13598;DHT22;38563;54.258;12.574;2023-04-15T02:38:48;7.10;99.90
13598;DHT22;38563;54.258;12.574;2023-04-15T02:41:15;7.10;99.90
13598;DHT22;38563;54.258;12.574;2023-04-15T02:43:44;7.10;99.90
13598;DHT22;38563;54.258;12.574;2023-04-15T02:46:12;7.20;99.90
13598;DHT22;38563;54.258;12.574;2023-04-15T02:48:39;7.20;99.90
13598;DHT22;38563;54.258;12.574;2023-04-15T02:51:15;7.20;99.90
13598;DHT22;38563;54.258;12.574;2023-04-15T02:53:44;7.20;99.90
13598;DHT22;38563;54.258;12.574;2023-04-15T02:56:11;7.20;99.90
13598;DHT22;38563;54.258;12.574;2023-04-15T02:58:41;7.10;99.90
13598;DHT22;38563;54.258;12.574;2023-04-15T03:01:07;7.10;99.90
13598;DHT22;38563;54.258;12.574;2023-04-15T03:03:34;7.10;99.90
13598;DHT22;38563;54.258;12.574;2023-04-15T03:06:01;7.10;99.90
13598;DHT22;38563;54.258;12.574;2023-04-15T03:08:28;7.00;99.90
13598;DHT22;38563;54.258;12.574;2023-04-15T03:10:58;7.00;99.90
13598;DHT22;38563;54.258;12.574;2023-04-15T03:13:27;6.90;99.90
13598;DHT22;38563;54.258;12.574;2023-04-15T03:15:55;6.90;99.90
13598;DHT22;38563;54.258;12.574;2023-04-15T03:18:22;6.90;99.90
13598;DHT22;38563;54.258;12.574;2023-04-15T03:20:49;6.90;99.90
13598;DHT22;38563;54.258;12.574;2023-04-15T03:23:16;6.90;99.90
13598;DHT22;38563;54.258;12.574;2023-04-15T03:25:44;6.80;99.90
13598;DHT22;38563;54.258;12.574;2023-04-15T03:28:12;6.70;99.90
13598;DHT22;38563;54.258;12.574;2023-04-15T03:30:39;6.70;99.90
13598;DHT22;38563;54.258;12.574;2023-04-15T03:33:06;6.70;99.90
13598;DHT22;38563;54.258;12.574;2023-04-15T03:35:33;6.80;99.90
13598;DHT22;38563;54.258;12.574;2023-04-15T03:38:00;6.80;99.90
13598;DHT22;38563;54.258;12.574;2023-04-15T03:40:26;6.80;99.90
13598;DHT22;38563;54.258;12.574;2023-04-15T03:42:53;6.90;99.90
13598;DHT22;38563;54.258;12.574;2023-04-15T03:45:21;6.90;99.90
13598;DHT22;38563;54.258;12.574;2023-04-15T03:47:48;6.90;99.90
13598;DHT22;38563;54.258;12.574;2023-04-15T03:50:15;6.90;99.90
13598;DHT22;38563;54.258;12.574;2023-04-15T03:52:41;6.90;99.90
13598;DHT22;38563;54.258;12.574;2023-04-15T03:55:08;7.00;99.90
13598;DHT22;38563;54.258;12.574;2023-04-15T03:57:35;7.00;99.90
13598;DHT22;38563;54.258;12.574;2023-04-15T04:00:04;7.10;99.90
13598;DHT22;38563;54.258;12.574;2023-04-15T04:02:38;7.10;99.90
13598;DHT22;38563;54.258;12.574;2023-04-15T04:05:05;7.20;99.90
13598;DHT22;38563;54.258;12.574;2023-04-15T04:07:32;7.20;99.90
13598;DHT22;38563;54.258;12.574;2023-04-15T04:09:59;7.30;99.90
13598;DHT22;38563;54.258;12.574;2023-04-15T04:12:26;7.30;99.90
13598;DHT22;38563;54.258;12.574;2023-04-15T04:14:52;7.30;99.90
13598;DHT22;38563;54.258;12.574;2023-04-15T04:17:19;7.30;99.90
13598;DHT22;38563;54.258;12.574;2023-04-15T04:19:47;7.30;99.90
13598;DHT22;38563;54.258;12.574;2023-04-15T04:22:14;7.20;99.90
13598;DHT22;38563;54.258;12.574;2023-04-15T04:24:40;7.10;99.90
13598;DHT22;38563;54.258;12.574;2023-04-15T04:27:07;7.10;99.90
13598;DHT22;38563;54.258;12.574;2023-04-15T04:29:34;7.00;99.90
13598;DHT22;38563;54.258;12.574;2023-04-15T04:32:00;7.10;99.90
13598;DHT22;38563;54.258;12.574;2023-04-15T04:34:27;7.10;99.90
13598;DHT22;38563;54.258;12.574;2023-04-15T04:36:55;7.10;99.90
13598;DHT22;38563;54.258;12.574;2023-04-15T04:39:21;7.00;99.90
13598;DHT22;38563;54.258;12.574;2023-04-15T04:41:48;7.10;99.90
13598;DHT22;38563;54.258;12.574;2023-04-15T04:44:16;7.10;99.90
13598;DHT22;38563;54.258;12.574;2023-04-15T04:46:43;7.10;99.90
13598;DHT22;38563;54.258;12.574;2023-04-15T04:49:09;7.10;99.90
13598;DHT22;38563;54.258;12.574;2023-04-15T04:51:36;7.10;99.90
13598;DHT22;38563;54.258;12.574;2023-04-15T04:54:05;7.20;99.90
13598;DHT22;38563;54.258;12.574;2023-04-15T04:56:32;7.20;99.90
13598;DHT22;38563;54.258;12.574;2023-04-15T04:58:59;7.20;99.90
13598;DHT22;38563;54.258;12.574;2023-04-15T05:01:25;7.30;99.90
13598;DHT22;38563;54.258;12.574;2023-04-15T05:03:53;7.30;99.90
13598;DHT22;38563;54.258;12.574;2023-04-15T05:06:20;7.30;99.90
13598;DHT22;38563;54.258;12.574;2023-04-15T05:08:47;7.30;99.90
13598;DHT22;38563;54.258;12.574;2023-04-15T05:11:15;7.40;99.90
13598;DHT22;38563;54.258;12.574;2023-04-15T05:13:42;7.50;99.90
13598;DHT22;38563;54.258;12.574;2023-04-15T05:16:09;7.50;99.90
13598;DHT22;38563;54.258;12.574;2023-04-15T05:18:35;7.50;99.90
13598;DHT22;38563;54.258;12.574;2023-04-15T05:21:02;7.60;99.90
13598;DHT22;38563;54.258;12.574;2023-04-15T05:23:29;7.70;99.90
13598;DHT22;38563;54.258;12.574;2023-04-15T05:25:55;7.70;99.90
13598;DHT22;38563;54.258;12.574;2023-04-15T05:28:23;7.70;99.90
13598;DHT22;38563;54.258;12.574;2023-04-15T05:30:50;7.80;99.90
13598;DHT22;38563;54.258;12.574;2023-04-15T05:33:17;7.80;99.90
13598;DHT22;38563;54.258;12.574;2023-04-15T05:35:43;7.80;99.90
13598;DHT22;38563;54.258;12.574;2023-04-15T05:38:10;7.90;99.90
13598;DHT22;38563;54.258;12.574;2023-04-15T05:40:37;8.00;99.90
13598;DHT22;38563;54.258;12.574;2023-04-15T05:43:04;8.10;99.90
13598;DHT22;38563;54.258;12.574;2023-04-15T05:45:31;8.10;99.90
13598;DHT22;38563;54.258;12.574;2023-04-15T05:47:58;8.20;99.90
13598;DHT22;38563;54.258;12.574;2023-04-15T05:50:25;8.20;99.90
13598;DHT22;38563;54.258;12.574;2023-04-15T05:52:51;8.30;99.90
13598;DHT22;38563;54.258;12.574;2023-04-15T05:55:18;8.40;99.90
13598;DHT22;38563;54.258;12.574;2023-04-15T05:57:45;8.40;99.90
13598;DHT22;38563;54.258;12.574;2023-04-15T06:00:13;8.60;99.90
13598;DHT22;38563;54.258;12.574;2023-04-15T06:02:41;8.70;99.90
13598;DHT22;38563;54.258;12.574;2023-04-15T06:05:08;8.80;99.90
13598;DHT22;38563;54.258;12.574;2023-04-15T06:07:36;8.90;99.90
13598;DHT22;38563;54.258;12.574;2023-04-15T06:10:04;9.00;99.90
13598;DHT22;38563;54.258;12.574;2023-04-15T06:12:31;9.10;99.90
13598;DHT22;38563;54.258;12.574;2023-04-15T06:14:58;9.20;99.90
13598;DHT22;38563;54.258;12.574;2023-04-15T06:17:25;9.10;99.90
13598;DHT22;38563;54.258;12.574;2023-04-15T06:19:53;9.20;99.90
13598;DHT22;38563;54.258;12.574;2023-04-15T06:22:20;9.20;99.90
13598;DHT22;38563;54.258;12.574;2023-04-15T06:24:47;9.20;99.90
13598;DHT22;38563;54.258;12.574;2023-04-15T06:27:14;9.30;99.90
13598;DHT22;38563;54.258;12.574;2023-04-15T06:29:41;9.30;99.90
13598;DHT22;38563;54.258;12.574;2023-04-15T06:32:08;9.30;99.90
13598;DHT22;38563;54.258;12.574;2023-04-15T06:34:35;9.40;99.90
13598;DHT22;38563;54.258;12.574;2023-04-15T06:37:03;9.40;99.90
13598;DHT22;38563;54.258;12.574;2023-04-15T06:39:29;9.50;99.90
13598;DHT22;38563;54.258;12.574;2023-04-15T06:41:57;9.60;99.90
13598;DHT22;38563;54.258;12.574;2023-04-15T06:44:23;9.60;99.90
13598;DHT22;38563;54.258;12.574;2023-04-15T06:46:50;9.70;99.90
13598;DHT22;38563;54.258;12.574;2023-04-15T06:49:17;9.70;99.90
13598;DHT22;38563;54.258;12.574;2023-04-15T06:51:43;9.90;99.90
13598;DHT22;38563;54.258;12.574;2023-04-15T06:54:11;9.90;99.90
13598;DHT22;38563;54.258;12.574;2023-04-15T06:56:38;10.00;99.90
13598;DHT22;38563;54.258;12.574;2023-04-15T06:59:06;10.10;99.90
13598;DHT22;38563;54.258;12.574;2023-04-15T07:01:33;10.20;99.90
13598;DHT22;38563;54.258;12.574;2023-04-15T07:03:59;10.30;99.90
13598;DHT22;38563;54.258;12.574;2023-04-15T07:06:26;10.40;99.90
13598;DHT22;38563;54.258;12.574;2023-04-15T07:08:53;10.50;99.90
13598;DHT22;38563;54.258;12.574;2023-04-15T07:11:21;10.50;99.90
13598;DHT22;38563;54.258;12.574;2023-04-15T07:13:48;10.60;99.90
13598;DHT22;38563;54.258;12.574;2023-04-15T07:16:14;10.60;99.90
13598;DHT22;38563;54.258;12.574;2023-04-15T07:18:41;10.60;99.90
13598;DHT22;38563;54.258;12.574;2023-04-15T07:21:08;10.70;99.90
13598;DHT22;38563;54.258;12.574;2023-04-15T07:23:34;10.70;99.90
13598;DHT22;38563;54.258;12.574;2023-04-15T07:26:02;10.70;99.90
13598;DHT22;38563;54.258;12.574;2023-04-15T07:28:30;10.80;99.90
13598;DHT22;38563;54.258;12.574;2023-04-15T07:30:57;10.80;99.90
13598;DHT22;38563;54.258;12.574;2023-04-15T07:33:24;10.80;99.90
13598;DHT22;38563;54.258;12.574;2023-04-15T07:35:50;10.90;99.90
13598;DHT22;38563;54.258;12.574;2023-04-15T07:38:17;11.00;99.90
13598;DHT22;38563;54.258;12.574;2023-04-15T07:40:45;11.10;99.90
13598;DHT22;38563;54.258;12.574;2023-04-15T07:43:12;11.10;99.90
13598;DHT22;38563;54.258;12.574;2023-04-15T07:45:40;11.20;99.90
13598;DHT22;38563;54.258;12.574;2023-04-15T07:48:07;11.10;99.90
13598;DHT22;38563;54.258;12.574;2023-04-15T07:50:34;11.20;99.90
13598;DHT22;38563;54.258;12.574;2023-04-15T07:53:00;11.30;99.90
13598;DHT22;38563;54.258;12.574;2023-04-15T07:55:27;11.40;99.90
13598;DHT22;38563;54.258;12.574;2023-04-15T07:57:55;11.40;99.90
13598;DHT22;38563;54.258;12.574;2023-04-15T08:00:22;11.40;99.90
13598;DHT22;38563;54.258;12.574;2023-04-15T08:02:50;11.50;99.90
13598;DHT22;38563;54.258;12.574;2023-04-15T08:05:18;11.50;99.90
13598;DHT22;38563;54.258;12.574;2023-04-15T08:07:45;11.50;99.90
13598;DHT22;38563;54.258;12.574;2023-04-15T08:10:11;11.60;99.90
13598;DHT22;38563;54.258;12.574;2023-04-15T08:12:38;11.70;99.90
13598;DHT22;38563;54.258;12.574;2023-04-15T08:15:06;11.70;99.90
13598;DHT22;38563;54.258;12.574;2023-04-15T08:17:33;11.70;99.90
13598;DHT22;38563;54.258;12.574;2023-04-15T08:20:02;11.70;99.90
13598;DHT22;38563;54.258;12.574;2023-04-15T08:22:30;11.90;99.90
13598;DHT22;38563;54.258;12.574;2023-04-15T08:24:56;12.00;99.90
13598;DHT22;38563;54.258;12.574;2023-04-15T08:27:23;12.10;99.90
13598;DHT22;38563;54.258;12.574;2023-04-15T08:29:50;12.20;99.90
13598;DHT22;38563;54.258;12.574;2023-04-15T08:32:17;12.20;99.90
13598;DHT22;38563;54.258;12.574;2023-04-15T08:34:44;12.30;99.90
13598;DHT22;38563;54.258;12.574;2023-04-15T08:37:12;12.20;99.90
13598;DHT22;38563;54.258;12.574;2023-04-15T08:39:38;12.00;99.90
13598;DHT22;38563;54.258;12.574;2023-04-15T08:42:11;12.00;99.90
13598;DHT22;38563;54.258;12.574;2023-04-15T08:44:39;11.80;99.90
13598;DHT22;38563;54.258;12.574;2023-04-15T08:47:07;11.80;99.90
13598;DHT22;38563;54.258;12.574;2023-04-15T08:49:38;11.70;99.90
13598;DHT22;38563;54.258;12.574;2023-04-15T08:52:05;11.70;99.90
13598;DHT22;38563;54.258;12.574;2023-04-15T08:54:34;11.70;99.90
13598;DHT22;38563;54.258;12.574;2023-04-15T08:57:02;11.80;99.90
13598;DHT22;38563;54.258;12.574;2023-04-15T08:59:29;11.70;99.90
13598;DHT22;38563;54.258;12.574;2023-04-15T09:01:56;11.70;99.90
13598;DHT22;38563;54.258;12.574;2023-04-15T09:04:23;11.70;99.90
13598;DHT22;38563;54.258;12.574;2023-04-15T09:06:50;11.80;99.90
13598;DHT22;38563;54.258;12.574;2023-04-15T09:09:17;12.00;99.90
13598;DHT22;38563;54.258;12.574;2023-04-15T09:11:45;12.10;99.90
13598;DHT22;38563;54.258;12.574;2023-04-15T09:14:14;12.20;99.90
13598;DHT22;38563;54.258;12.574;2023-04-15T09:16:57;12.50;99.90
13598;DHT22;38563;54.258;12.574;2023-04-15T09:19:24;12.70;99.90
13598;DHT22;38563;54.258;12.574;2023-04-15T09:21:52;12.70;99.90
13598;DHT22;38563;54.258;12.574;2023-04-15T09:24:19;12.60;99.90
13598;DHT22;38563;54.258;12.574;2023-04-15T09:26:51;12.50;99.90
13598;DHT22;38563;54.258;12.574;2023-04-15T09:29:18;12.40;99.90
13598;DHT22;38563;54.258;12.574;2023-04-15T09:31:45;12.40;99.90
13598;DHT22;38563;54.258;12.574;2023-04-15T09:34:12;12.30;99.90
13598;DHT22;38563;54.258;12.574;2023-04-15T09:36:52;12.30;99.90
13598;DHT22;38563;54.258;12.574;2023-04-15T09:39:19;12.40;99.90
13598;DHT22;38563;54.258;12.574;2023-04-15T09:42:03;12.50;99.90
13598;DHT22;38563;54.258;12.574;2023-04-15T09:44:30;12.70;99.90
13598;DHT22;38563;54.258;12.574;2023-04-15T09:46:56;12.80;99.90
13598;DHT22;38563;54.258;12.574;2023-04-15T09:49:23;12.80;99.90
13598;DHT22;38563;54.258;12.574;2023-04-15T09:51:50;12.80;99.90
13598;DHT22;38563;54.258;12.574;2023-04-15T09:54:18;12.70;99.90
13598;DHT22;38563;54.258;12.574;2023-04-15T09:56:47;12.50;99.90
13598;DHT22;38563;54.258;12.574;2023-04-15T09:59:14;12.20;99.90
13598;DHT22;38563;54.258;12.574;2023-04-15T10:01:41;12.10;99.90
13598;DHT22;38563;54.258;12.574;2023-04-15T10:04:09;12.20;99.90
13598;DHT22;38563;54.258;12.574;2023-04-15T10:06:36;12.30;99.90
13598;DHT22;38563;54.258;12.574;2023-04-15T10:09:03;12.20;99.90
13598;DHT22;38563;54.258;12.574;2023-04-15T10:11:32;12.30;99.90
13598;DHT22;38563;54.258;12.574;2023-04-15T10:14:01;12.30;99.90
13598;DHT22;38563;54.258;12.574;2023-04-15T10:16:29;12.40;99.90
13598;DHT22;38563;54.258;12.574;2023-04-15T10:19:00;12.40;99.90
13598;DHT22;38563;54.258;12.574;2023-04-15T10:21:28;12.40;99.90
13598;DHT22;38563;54.258;12.574;2023-04-15T10:23:57;12.40;99.90
13598;DHT22;38563;54.258;12.574;2023-04-15T10:26:23;12.40;99.90
13598;DHT22;38563;54.258;12.574;2023-04-15T10:28:51;12.50;99.90
13598;DHT22;38563;54.258;12.574;2023-04-15T10:31:20;12.60;99.90
13598;DHT22;38563;54.258;12.574;2023-04-15T10:33:47;12.40;99.90
13598;DHT22;38563;54.258;12.574;2023-04-15T10:36:15;12.60;99.90
13598;DHT22;38563;54.258;12.574;2023-04-15T10:38:43;12.90;99.90
13598;DHT22;38563;54.258;12.574;2023-04-15T10:41:14;12.90;99.90
13598;DHT22;38563;54.258;12.574;2023-04-15T10:43:49;12.80;99.90
13598;DHT22;38563;54.258;12.574;2023-04-15T10:46:35;12.50;99.90
13598;DHT22;38563;54.258;12.574;2023-04-15T10:49:06;12.40;99.90
13598;DHT22;38563;54.258;12.574;2023-04-15T10:51:36;12.70;99.90
13598;DHT22;38563;54.258;12.574;2023-04-15T10:54:08;12.80;99.90
13598;DHT22;38563;54.258;12.574;2023-04-15T10:56:40;12.70;99.90
13598;DHT22;38563;54.258;12.574;2023-04-15T10:59:07;12.70;99.90
13598;DHT22;38563;54.258;12.574;2023-04-15T11:01:51;12.80;99.90
13598;DHT22;38563;54.258;12.574;2023-04-15T11:04:50;12.80;99.90
13598;DHT22;38563;54.258;12.574;2023-04-15T11:07:33;12.50;99.90
13598;DHT22;38563;54.258;12.574;2023-04-15T11:10:00;12.50;99.90
13598;DHT22;38563;54.258;12.574;2023-04-15T11:12:33;12.40;99.90
13598;DHT22;38563;54.258;12.574;2023-04-15T11:15:26;12.40;99.90
13598;DHT22;38563;54.258;12.574;2023-04-15T11:17:54;12.30;99.90
13598;DHT22;38563;54.258;12.574;2023-04-15T11:20:21;12.20;99.90
13598;DHT22;38563;54.258;12.574;2023-04-15T11:22:49;12.20;99.90
13598;DHT22;38563;54.258;12.574;2023-04-15T11:25:22;12.20;99.90
13598;DHT22;38563;54.258;12.574;2023-04-15T11:27:49;12.30;99.90
13598;DHT22;38563;54.258;12.574;2023-04-15T11:30:18;12.40;99.90
13598;DHT22;38563;54.258;12.574;2023-04-15T11:32:46;12.40;99.90
13598;DHT22;38563;54.258;12.574;2023-04-15T11:35:15;12.40;99.90
13598;DHT22;38563;54.258;12.574;2023-04-15T11:37:42;12.50;99.90
13598;DHT22;38563;54.258;12.574;2023-04-15T11:40:09;12.30;99.90
13598;DHT22;38563;54.258;12.574;2023-04-15T11:42:36;12.40;99.90
13598;DHT22;38563;54.258;12.574;2023-04-15T11:45:06;12.30;99.90
13598;DHT22;38563;54.258;12.574;2023-04-15T11:47:34;12.30;99.90
13598;DHT22;38563;54.258;12.574;2023-04-15T11:50:17;12.30;99.90
13598;DHT22;38563;54.258;12.574;2023-04-15T11:52:53;12.30;99.90
13598;DHT22;38563;54.258;12.574;2023-04-15T11:55:21;12.40;99.90
13598;DHT22;38563;54.258;12.574;2023-04-15T11:58:04;12.60;99.90
13598;DHT22;38563;54.258;12.574;2023-04-15T12:00:31;12.60;99.90
13598;DHT22;38563;54.258;12.574;2023-04-15T12:03:11;12.90;99.90
13598;DHT22;38563;54.258;12.574;2023-04-15T12:06:03;12.70;99.90
13598;DHT22;38563;54.258;12.574;2023-04-15T12:08:49;12.70;99.90
13598;DHT22;38563;54.258;12.574;2023-04-15T12:11:17;12.70;99.90
13598;DHT22;38563;54.258;12.574;2023-04-15T12:13:46;12.70;99.90
13598;DHT22;38563;54.258;12.574;2023-04-15T12:16:15;12.60;99.90
13598;DHT22;38563;54.258;12.574;2023-04-15T12:18:44;12.40;99.90
13598;DHT22;38563;54.258;12.574;2023-04-15T12:21:13;12.30;99.90
13598;DHT22;38563;54.258;12.574;2023-04-15T12:23:47;12.30;99.90
13598;DHT22;38563;54.258;12.574;2023-04-15T12:26:14;12.30;99.90
13598;DHT22;38563;54.258;12.574;2023-04-15T12:28:41;12.40;99.90
13598;DHT22;38563;54.258;12.574;2023-04-15T12:31:08;12.40;99.90
13598;DHT22;38563;54.258;12.574;2023-04-15T12:33:36;12.30;99.90
13598;DHT22;38563;54.258;12.574;2023-04-15T12:36:03;12.20;99.90
13598;DHT22;38563;54.258;12.574;2023-04-15T12:38:31;12.10;99.90
13598;DHT22;38563;54.258;12.574;2023-04-15T12:40:58;12.10;99.90
13598;DHT22;38563;54.258;12.574;2023-04-15T12:43:25;12.00;99.90
13598;DHT22;38563;54.258;12.574;2023-04-15T12:45:52;11.90;99.90
13598;DHT22;38563;54.258;12.574;2023-04-15T12:48:18;11.90;99.90
13598;DHT22;38563;54.258;12.574;2023-04-15T12:50:45;12.00;99.90
13598;DHT22;38563;54.258;12.574;2023-04-15T12:53:12;11.90;99.90
13598;DHT22;38563;54.258;12.574;2023-04-15T12:55:40;12.00;99.90
13598;DHT22;38563;54.258;12.574;2023-04-15T12:58:06;11.80;99.90
13598;DHT22;38563;54.258;12.574;2023-04-15T13:00:33;11.70;99.90
13598;DHT22;38563;54.258;12.574;2023-04-15T13:03:00;11.70;99.90
13598;DHT22;38563;54.258;12.574;2023-04-15T13:05:27;11.80;99.90
13598;DHT22;38563;54.258;12.574;2023-04-15T13:07:53;11.80;99.90
13598;DHT22;38563;54.258;12.574;2023-04-15T13:10:20;11.70;99.90
13598;DHT22;38563;54.258;12.574;2023-04-15T13:12:50;11.50;99.90
13598;DHT22;38563;54.258;12.574;2023-04-15T13:15:18;11.50;99.90
13598;DHT22;38563;54.258;12.574;2023-04-15T13:17:46;11.60;99.90
13598;DHT22;38563;54.258;12.574;2023-04-15T13:20:13;11.60;99.90
13598;DHT22;38563;54.258;12.574;2023-04-15T13:22:40;11.60;99.90
13598;DHT22;38563;54.258;12.574;2023-04-15T13:25:07;11.60;99.90
13598;DHT22;38563;54.258;12.574;2023-04-15T13:27:34;11.50;99.90
13598;DHT22;38563;54.258;12.574;2023-04-15T13:30:02;11.40;99.90
13598;DHT22;38563;54.258;12.574;2023-04-15T13:32:29;11.40;99.90
13598;DHT22;38563;54.258;12.574;2023-04-15T13:34:56;11.50;99.90
13598;DHT22;38563;54.258;12.574;2023-04-15T13:37:25;11.60;99.90
13598;DHT22;38563;54.258;12.574;2023-04-15T13:39:52;11.50;99.90
13598;DHT22;38563;54.258;12.574;2023-04-15T13:42:19;11.30;99.90
13598;DHT22;38563;54.258;12.574;2023-04-15T13:44:46;11.20;99.90
13598;DHT22;38563;54.258;12.574;2023-04-15T13:47:14;11.30;99.90
13598;DHT22;38563;54.258;12.574;2023-04-15T13:49:41;11.40;99.90
13598;DHT22;38563;54.258;12.574;2023-04-15T13:52:07;11.40;99.90
13598;DHT22;38563;54.258;12.574;2023-04-15T13:54:34;11.30;99.90
13598;DHT22;38563;54.258;12.574;2023-04-15T13:57:01;11.50;99.90
13598;DHT22;38563;54.258;12.574;2023-04-15T13:59:27;11.70;99.90
13598;DHT22;38563;54.258;12.574;2023-04-15T14:01:54;11.80;99.90
13598;DHT22;38563;54.258;12.574;2023-04-15T14:04:22;11.60;99.90
13598;DHT22;38563;54.258;12.574;2023-04-15T14:06:49;11.60;99.90
13598;DHT22;38563;54.258;12.574;2023-04-15T14:09:16;11.50;99.90
13598;DHT22;38563;54.258;12.574;2023-04-15T14:11:43;11.20;99.90
13598;DHT22;38563;54.258;12.574;2023-04-15T14:14:09;10.90;99.90
13598;DHT22;38563;54.258;12.574;2023-04-15T14:16:36;10.60;99.90
13598;DHT22;38563;54.258;12.574;2023-04-15T14:19:03;10.50;99.90
13598;DHT22;38563;54.258;12.574;2023-04-15T14:21:31;10.50;99.90
13598;DHT22;38563;54.258;12.574;2023-04-15T14:23:58;10.40;99.90
13598;DHT22;38563;54.258;12.574;2023-04-15T14:26:24;10.30;99.90
13598;DHT22;38563;54.258;12.574;2023-04-15T14:28:51;10.20;99.90
13598;DHT22;38563;54.258;12.574;2023-04-15T14:31:18;10.20;99.90
13598;DHT22;38563;54.258;12.574;2023-04-15T14:33:45;10.20;99.90
13598;DHT22;38563;54.258;12.574;2023-04-15T14:36:11;10.10;99.90
13598;DHT22;38563;54.258;12.574;2023-04-15T14:38:39;10.00;99.90
13598;DHT22;38563;54.258;12.574;2023-04-15T14:41:06;10.00;99.90
13598;DHT22;38563;54.258;12.574;2023-04-15T14:43:34;9.90;99.90
13598;DHT22;38563;54.258;12.574;2023-04-15T14:46:00;9.90;99.90
13598;DHT22;38563;54.258;12.574;2023-04-15T14:48:27;9.90;99.90
13598;DHT22;38563;54.258;12.574;2023-04-15T14:50:54;9.90;99.90
13598;DHT22;38563;54.258;12.574;2023-04-15T14:53:21;9.90;99.90
13598;DHT22;38563;54.258;12.574;2023-04-15T14:55:49;9.90;99.90
13598;DHT22;38563;54.258;12.574;2023-04-15T14:58:15;10.00;99.90
13598;DHT22;38563;54.258;12.574;2023-04-15T15:00:42;10.00;99.90
13598;DHT22;38563;54.258;12.574;2023-04-15T15:03:10;9.90;99.90
13598;DHT22;38563;54.258;12.574;2023-04-15T15:05:38;9.90;99.90
13598;DHT22;38563;54.258;12.574;2023-04-15T15:08:05;9.90;99.90
13598;DHT22;38563;54.258;12.574;2023-04-15T15:10:33;9.80;99.90
13598;DHT22;38563;54.258;12.574;2023-04-15T15:13:02;9.90;99.90
13598;DHT22;38563;54.258;12.574;2023-04-15T15:15:29;9.80;99.90
13598;DHT22;38563;54.258;12.574;2023-04-15T15:17:55;9.80;99.90
13598;DHT22;38563;54.258;12.574;2023-04-15T15:20:22;9.80;99.90
13598;DHT22;38563;54.258;12.574;2023-04-15T15:22:49;9.80;99.90
13598;DHT22;38563;54.258;12.574;2023-04-15T15:25:16;9.80;99.90
13598;DHT22;38563;54.258;12.574;2023-04-15T15:27:43;9.70;99.90